EHRDEHGG

Guest
Details From EHRD - Rotterdam The Hague
To EHGG - Eelde
Flight Number -
Tags generated
Created
Modified
Stats Distance 105 nm / 194 km
Max Altitude 11,600 ft / 3,536 m
Waypoints 3
Social Downloads 2
Likes 0
Share VATSIM

Download

Looking for another format? Having issues loading an existing format? Contact us
Advertisement - Login to hide

Notes

Basic altitude profile: - Ascent Rate: 2500ft/min - Ascent Speed: 250kts - Cruise Altitude: 35000ft - Cruise Speed: 420kts - Descent Rate: 1500ft/min - Descent Speed: 250kts Options: - Use NATs: no - Use PACOTS: no - Use low airways: yes - Use high airways: no

Route

EHRD LILSI EHGG

ID Type Via Altitude Latitude Longitude Leg Dist Tot Dist Heading (true) Name
O EHRD APT - 0 ft / 0 m 51.95747˚ 4.44166˚ - 0 nm - Rotterdam The Hague
LILSI FIX - 11,600 ft / 3,536 m 52.47326˚ 5.34833˚ 45 nm 45 nm 47° / 47° -
O EHGG APT - 0 ft / 0 m 53.12103˚ 6.57707˚ 59 nm 104 nm 48° / 49° Eelde

Altitude Profile

Advertisement - Login to hide

EHRD

Details ICAO EHRD (RTM)
Name Rotterdam The Hague
Region Netherlands
Timezone Europe/Amsterdam (UTC+1.0)
Stats Elevation -15 ft / -5 m (AMSL)
Location 51.957468° 4.441662°
Runways 1
Magnetic Variation 1.048° E

METAR

EHRD 160355Z AUTO 26004KT 9999 NCD 02/01 Q1007 TEMPO 34010G20KT 7000 -SHRA SCT020CB

Decode

TAF

TAF EHRD 152312Z 1600/1706 28003KT 2000 BR NSC BECMG 1600/1603 31008KT 9999 NSW SCT025 TEMPO 1600/1706 33012G22KT 5000 SHRA SHRAGS SCT018CB BKN030

Decode

Departure Runways

ID Width Length Bearing (true) Bearing (mag) Surface Threshold Offset Overrun Length
06 148 ft / 45 m 7,201 ft / 2,195 m 56.93° 55.88° Asphalt 656 ft / 200 m 0 ft / 0 m
24 148 ft / 45 m 7,201 ft / 2,195 m 236.95° 235.90° Asphalt 656 ft / 200 m 0 ft / 0 m

EHGG

Details ICAO EHGG (GRQ)
Name Eelde
Region Netherlands
Timezone Europe/Amsterdam (UTC+1.0)
Stats Elevation 17 ft / 5 m (AMSL)
Location 53.121033° 6.577073°
Runways 2
Magnetic Variation 1.690° E

METAR

EHGG 160355Z AUTO 24005KT 6000 FEW043 M00/M01 Q1004

Decode

TAF

TAF EHGG 152325Z 1600/1706 30005KT 9999 SCT015 TEMPO 1600/1602 4000 -SHRA SCT015CB BKN025 TEMPO 1608/1702 29012G24KT 3000 SHRA SHRAGS BKN012 SCT018CB

Decode

Destination Runways

ID Width Length Bearing (true) Bearing (mag) Surface Threshold Offset Overrun Length
01 148 ft / 45 m 4,918 ft / 1,499 m 8.73° 7.04° Asphalt 0 ft / 0 m 0 ft / 0 m
05 148 ft / 45 m 8,185 ft / 2,495 m 51.78° 50.09° Asphalt 0 ft / 0 m 98 ft / 30 m
19 148 ft / 45 m 4,918 ft / 1,499 m 188.74° 187.05° Asphalt 0 ft / 0 m 0 ft / 0 m
23 148 ft / 45 m 8,185 ft / 2,495 m 231.81° 230.12° Asphalt 0 ft / 0 m 98 ft / 30 m

Approach Navaids

Runway Type Ident Frequency Range Bearing (true) Bearing (mag) Slope Elevation
23 Localiser GRO 109.90 MHz 18 nm / 33 km 231.79° 230.10° - 17 ft / 5 m (AMSL)
23 Glidescope GRO 109.90 MHz 15 nm / 28 km 232.94° 231.25° 3.00° 17 ft / 5 m (AMSL)
23 DME GRO 109.90 MHz 18 nm / 33 km - - - 17 ft / 5 m (AMSL)

Popular Alternatives